createdAt,value
2018-05-29T00:00:33.251Z,90.10
2018-05-29T00:02:59.472Z,90.40
2018-05-29T00:05:25.701Z,90.40
2018-05-29T00:07:52.204Z,90.10
2018-05-29T00:10:18.509Z,90.30
2018-05-29T00:12:45.498Z,90.60
2018-05-29T00:15:11.696Z,90.50
2018-05-29T00:17:38.716Z,91.10
2018-05-29T00:20:04.973Z,91.10
2018-05-29T00:22:31.937Z,91.20
2018-05-29T00:24:58.293Z,91.20
2018-05-29T00:27:24.513Z,91.20
2018-05-29T00:29:50.738Z,91.50
2018-05-29T00:32:17.057Z,91.40
2018-05-29T00:34:43.291Z,91.30
2018-05-29T00:37:09.537Z,91.50
2018-05-29T00:39:35.903Z,91.50
2018-05-29T00:42:03.165Z,91.70
2018-05-29T00:44:29.458Z,91.80
2018-05-29T00:46:55.672Z,91.90
2018-05-29T00:49:21.961Z,91.60
2018-05-29T00:51:48.426Z,91.90
2018-05-29T00:54:14.788Z,92.20
2018-05-29T00:56:41.135Z,92.00
2018-05-29T00:59:07.369Z,91.90
2018-05-29T01:01:33.637Z,92.30
2018-05-29T01:03:59.839Z,92.00
2018-05-29T01:06:26.908Z,92.40
2018-05-29T01:08:53.104Z,92.60
2018-05-29T01:11:20.076Z,93.00
2018-05-29T01:13:46.283Z,93.00
2018-05-29T01:16:12.509Z,93.00
2018-05-29T01:18:38.719Z,93.10
2018-05-29T01:21:04.996Z,93.30
2018-05-29T01:23:31.240Z,93.30
2018-05-29T01:25:57.460Z,93.40
2018-05-29T01:28:23.730Z,93.30
2018-05-29T01:30:50.873Z,93.70
2018-05-29T01:33:17.090Z,93.70
2018-05-29T01:35:43.865Z,93.70
2018-05-29T01:38:10.184Z,93.70
2018-05-29T01:40:36.413Z,94.00
2018-05-29T01:43:03.340Z,94.10
2018-05-29T01:45:29.550Z,94.10
2018-05-29T01:47:55.797Z,94.00
2018-05-29T01:50:23.020Z,94.20
2018-05-29T01:52:49.224Z,94.20
2018-05-29T01:55:15.446Z,94.20
2018-05-29T01:57:41.718Z,94.10
2018-05-29T02:00:07.940Z,94.30
2018-05-29T02:02:34.433Z,94.50
2018-05-29T02:05:01.465Z,94.20
2018-05-29T02:07:27.680Z,94.10
2018-05-29T02:09:53.904Z,94.30
2018-05-29T02:12:20.979Z,94.10
2018-05-29T02:14:47.201Z,94.10
2018-05-29T02:17:13.747Z,94.40
2018-05-29T02:19:39.964Z,94.20
2018-05-29T02:22:06.187Z,94.30
2018-05-29T02:24:32.580Z,94.40
2018-05-29T02:26:59.665Z,94.80
2018-05-29T02:29:25.907Z,94.80
2018-05-29T02:31:52.255Z,94.50
2018-05-29T02:34:18.542Z,94.30
2018-05-29T02:36:44.782Z,94.60
2018-05-29T02:39:11.097Z,94.60
2018-05-29T02:41:37.337Z,94.90
2018-05-29T02:44:03.631Z,94.70
2018-05-29T02:46:30.605Z,95.00
2018-05-29T02:48:57.653Z,94.90
2018-05-29T02:51:23.914Z,94.90
2018-05-29T02:53:50.188Z,94.80
2018-05-29T02:56:17.332Z,95.50
2018-05-29T02:58:44.301Z,95.80
2018-05-29T03:01:10.580Z,95.70
2018-05-29T03:03:36.805Z,95.20
2018-05-29T03:06:03.122Z,95.30
2018-05-29T03:08:29.568Z,95.50
2018-05-29T03:10:55.813Z,95.80
2018-05-29T03:13:22.048Z,95.90
2018-05-29T03:15:49.040Z,95.80
2018-05-29T03:18:15.644Z,95.80
2018-05-29T03:20:42.669Z,96.00
2018-05-29T03:23:08.970Z,96.00
2018-05-29T03:25:35.175Z,95.90
2018-05-29T03:28:01.642Z,95.90
2018-05-29T03:30:27.981Z,95.80
2018-05-29T03:32:54.453Z,95.70
2018-05-29T03:35:20.905Z,95.40
2018-05-29T03:37:47.116Z,95.60
2018-05-29T03:40:14.105Z,95.70
2018-05-29T03:42:40.327Z,95.70
2018-05-29T03:45:06.503Z,95.50
2018-05-29T03:47:33.532Z,95.60
2018-05-29T03:49:59.786Z,95.60
2018-05-29T03:52:26.036Z,95.70
2018-05-29T03:54:52.324Z,95.60
2018-05-29T03:57:20.932Z,95.70
2018-05-29T03:59:49.141Z,95.60
2018-05-29T04:02:15.456Z,95.60
2018-05-29T04:04:41.844Z,95.60
2018-05-29T04:07:08.145Z,95.60
2018-05-29T04:09:34.419Z,95.60
2018-05-29T04:12:00.697Z,95.50
2018-05-29T04:14:26.937Z,95.50
2018-05-29T04:16:53.132Z,95.60
2018-05-29T04:19:19.558Z,95.30
2018-05-29T04:21:45.776Z,95.50
2018-05-29T04:24:12.023Z,95.50
2018-05-29T04:26:39.582Z,95.50
2018-05-29T04:29:06.161Z,95.80
2018-05-29T04:31:32.433Z,95.60
2018-05-29T04:33:58.675Z,95.30
2018-05-29T04:36:24.871Z,95.40
2018-05-29T04:38:51.131Z,95.50
2018-05-29T04:41:17.724Z,95.40
2018-05-29T04:43:44.111Z,95.50
2018-05-29T04:46:11.132Z,95.40
2018-05-29T04:48:37.426Z,95.40
2018-05-29T04:51:04.434Z,95.20
2018-05-29T04:53:30.679Z,95.20
2018-05-29T04:55:56.941Z,94.90
2018-05-29T04:58:23.944Z,94.30
2018-05-29T05:00:50.174Z,94.30
2018-05-29T05:03:16.410Z,94.20
2018-05-29T05:05:42.646Z,94.70
2018-05-29T05:08:08.974Z,94.60
2018-05-29T05:10:35.337Z,94.80
2018-05-29T05:13:01.613Z,94.90
2018-05-29T05:15:27.890Z,94.30
2018-05-29T05:17:54.279Z,94.10
2018-05-29T05:20:20.793Z,93.60
2018-05-29T05:22:47.134Z,94.10
2018-05-29T05:25:13.584Z,93.90
2018-05-29T05:27:39.772Z,93.60
2018-05-29T05:30:06.138Z,93.20
2018-05-29T05:32:32.435Z,92.30
2018-05-29T05:34:59.393Z,91.20
2018-05-29T05:37:25.627Z,91.20
2018-05-29T05:39:51.834Z,92.70
2018-05-29T05:42:18.062Z,91.80
2018-05-29T05:44:44.289Z,91.20
2018-05-29T05:47:10.551Z,91.10
2018-05-29T05:49:36.798Z,91.40
2018-05-29T05:52:03.364Z,91.60
2018-05-29T05:54:29.740Z,91.10
2018-05-29T05:56:55.974Z,91.20
2018-05-29T05:59:22.172Z,90.60
2018-05-29T06:01:48.421Z,88.90
2018-05-29T06:04:14.647Z,89.80
2018-05-29T06:06:40.956Z,89.20
2018-05-29T06:09:07.184Z,85.90
2018-05-29T06:11:33.500Z,84.30
2018-05-29T06:13:59.803Z,84.30
2018-05-29T06:16:26.781Z,83.40
2018-05-29T06:18:53.720Z,84.90
2018-05-29T06:21:19.952Z,84.80
2018-05-29T06:23:46.532Z,85.10
2018-05-29T06:26:13.006Z,85.60
2018-05-29T06:28:39.348Z,81.80
2018-05-29T06:31:05.548Z,80.40
2018-05-29T06:33:32.524Z,77.80
2018-05-29T06:35:58.838Z,77.80
2018-05-29T06:38:25.061Z,77.70
2018-05-29T06:40:51.327Z,74.20
2018-05-29T06:43:17.552Z,74.50
2018-05-29T06:45:43.793Z,71.50
2018-05-29T06:48:10.008Z,68.60
2018-05-29T06:50:36.216Z,66.40
2018-05-29T06:53:02.431Z,63.20
2018-05-29T06:55:28.635Z,59.50
2018-05-29T06:57:54.881Z,56.30
2018-05-29T07:00:21.868Z,54.90
2018-05-29T07:02:48.108Z,54.80
2018-05-29T07:05:14.452Z,52.00
2018-05-29T07:07:43.635Z,49.70
2018-05-29T07:10:09.926Z,49.30
2018-05-29T07:12:36.172Z,47.20
2018-05-29T07:15:02.405Z,46.40
2018-05-29T07:17:28.631Z,44.50
2018-05-29T07:19:54.883Z,46.70
2018-05-29T07:22:21.281Z,45.40
2018-05-29T07:24:47.635Z,45.10
2018-05-29T07:27:13.896Z,42.30
2018-05-29T07:29:40.101Z,41.90
2018-05-29T07:32:06.317Z,41.00
2018-05-29T07:34:32.577Z,40.70
2018-05-29T07:36:58.769Z,40.40
2018-05-29T07:39:25.985Z,40.50
2018-05-29T07:41:52.571Z,40.30
2018-05-29T07:44:19.749Z,37.90
2018-05-29T07:46:46.769Z,38.50
2018-05-29T07:49:12.986Z,38.40
2018-05-29T07:51:39.250Z,38.80
2018-05-29T07:54:06.321Z,35.80
2018-05-29T07:56:32.651Z,35.70
2018-05-29T07:58:58.922Z,35.50
2018-05-29T08:01:25.268Z,35.20
2018-05-29T08:03:51.691Z,35.80
2018-05-29T08:06:17.964Z,34.90
2018-05-29T08:08:44.202Z,33.70
2018-05-29T08:11:10.420Z,33.80
2018-05-29T08:13:37.437Z,34.50
2018-05-29T08:16:03.798Z,34.40
2018-05-29T08:18:30.172Z,34.50
2018-05-29T08:20:57.324Z,33.80
2018-05-29T08:23:23.784Z,33.70
2018-05-29T08:25:50.001Z,34.70
2018-05-29T08:28:16.264Z,33.40
2018-05-29T08:30:43.320Z,33.70
2018-05-29T08:33:09.624Z,33.80
2018-05-29T08:35:36.593Z,35.50
2018-05-29T08:38:02.842Z,35.50
2018-05-29T08:40:29.153Z,35.20
2018-05-29T08:42:55.367Z,33.50
2018-05-29T08:45:22.372Z,33.10
2018-05-29T08:47:48.599Z,33.00
2018-05-29T08:50:14.829Z,32.50
2018-05-29T08:52:41.041Z,33.50
2018-05-29T08:55:07.288Z,33.10
2018-05-29T08:57:33.607Z,34.60
2018-05-29T09:00:00.360Z,33.90
2018-05-29T09:02:26.606Z,33.50
2018-05-29T09:04:53.538Z,34.70
2018-05-29T09:07:19.784Z,34.50
2018-05-29T09:09:46.045Z,32.30
2018-05-29T09:12:12.270Z,32.70
2018-05-29T09:14:38.496Z,31.70
2018-05-29T09:17:05.552Z,34.40
2018-05-29T09:19:31.799Z,32.30
2018-05-29T09:21:58.021Z,32.30
2018-05-29T09:24:24.292Z,34.10
2018-05-29T09:26:50.565Z,31.90
2018-05-29T09:29:16.789Z,31.10
2018-05-29T09:31:43.033Z,33.10
2018-05-29T09:34:09.340Z,33.60
2018-05-29T09:36:35.552Z,33.30
2018-05-29T09:39:01.842Z,32.30
2018-05-29T09:41:28.159Z,32.90
2018-05-29T09:43:55.117Z,32.80
2018-05-29T09:46:21.354Z,32.80
2018-05-29T09:48:47.594Z,32.00
2018-05-29T09:51:13.828Z,33.20
2018-05-29T09:53:40.097Z,33.50
2018-05-29T09:56:06.336Z,33.30
2018-05-29T09:58:32.562Z,33.60
2018-05-29T10:00:58.773Z,34.90
2018-05-29T10:03:25.004Z,36.00
2018-05-29T10:05:51.248Z,34.10
2018-05-29T10:08:17.491Z,33.40
2018-05-29T10:10:43.728Z,32.80
2018-05-29T10:13:09.967Z,33.10
2018-05-29T10:15:36.944Z,34.20
2018-05-29T10:18:03.200Z,34.10
2018-05-29T10:20:29.385Z,32.60
2018-05-29T10:22:56.363Z,34.40
2018-05-29T10:25:23.192Z,35.00
2018-05-29T10:27:49.469Z,32.30
2018-05-29T10:30:23.500Z,33.30
2018-05-29T10:32:50.611Z,34.80
2018-05-29T10:35:16.905Z,34.80
2018-05-29T10:37:43.121Z,35.40
2018-05-29T10:40:09.347Z,34.80
2018-05-29T10:42:35.553Z,36.20
2018-05-29T10:45:01.798Z,37.30
2018-05-29T10:47:28.767Z,36.10
2018-05-29T10:49:55.215Z,36.00
2018-05-29T10:52:22.415Z,36.40
2018-05-29T10:54:49.384Z,37.40
2018-05-29T10:57:15.596Z,37.30
2018-05-29T10:59:42.581Z,39.10
2018-05-29T11:02:08.808Z,39.00
2018-05-29T11:04:35.027Z,38.50
2018-05-29T11:07:01.313Z,36.80
2018-05-29T11:09:27.553Z,39.50
2018-05-29T11:11:54.575Z,37.20
2018-05-29T11:14:20.839Z,37.20
2018-05-29T11:16:47.023Z,39.20
2018-05-29T11:19:13.264Z,39.90
2018-05-29T11:21:39.519Z,39.00
2018-05-29T11:24:05.780Z,38.50
2018-05-29T11:26:32.125Z,40.00
2018-05-29T11:28:58.362Z,41.80
2018-05-29T11:31:25.364Z,41.90
2018-05-29T11:33:51.577Z,41.80
2018-05-29T11:36:18.573Z,40.90
2018-05-29T11:38:44.879Z,40.90
2018-05-29T11:41:11.093Z,41.30
2018-05-29T11:43:37.340Z,41.80
2018-05-29T11:46:03.568Z,42.00
2018-05-29T11:48:29.957Z,43.00
2018-05-29T11:50:56.186Z,43.80
2018-05-29T11:53:23.464Z,43.70
2018-05-29T11:55:49.776Z,43.60
2018-05-29T11:58:16.085Z,40.90
2018-05-29T12:00:43.036Z,40.50
2018-05-29T12:03:09.986Z,40.70
2018-05-29T12:05:37.044Z,41.10
2018-05-29T12:08:03.364Z,41.10
2018-05-29T12:10:29.702Z,41.10
2018-05-29T12:12:55.936Z,41.40
2018-05-29T12:15:22.171Z,43.40
2018-05-29T12:17:48.414Z,44.00
2018-05-29T12:20:14.644Z,43.00
2018-05-29T12:22:40.867Z,40.50
2018-05-29T12:25:07.205Z,41.80
2018-05-29T12:27:34.174Z,42.20
2018-05-29T12:30:00.382Z,42.30
2018-05-29T12:32:26.600Z,41.30
2018-05-29T12:34:52.839Z,41.80
2018-05-29T12:37:19.128Z,42.60
2018-05-29T12:39:45.355Z,41.40
2018-05-29T12:42:11.622Z,40.50
2018-05-29T12:44:37.876Z,44.00
2018-05-29T12:47:04.097Z,43.40
2018-05-29T12:49:30.298Z,42.80
2018-05-29T12:51:56.505Z,43.20
2018-05-29T12:54:22.747Z,44.60
2018-05-29T12:56:49.057Z,45.20
2018-05-29T12:59:15.345Z,43.90
2018-05-29T13:01:42.436Z,45.00
2018-05-29T13:04:08.665Z,44.30
2018-05-29T13:06:34.878Z,44.10
2018-05-29T13:09:01.846Z,44.10
2018-05-29T13:11:28.069Z,43.90
2018-05-29T13:13:54.307Z,45.20
2018-05-29T13:16:20.581Z,44.00
2018-05-29T13:18:46.806Z,45.40
2018-05-29T13:21:13.143Z,45.80
2018-05-29T13:23:39.398Z,45.90
2018-05-29T13:26:05.628Z,47.40
2018-05-29T13:28:32.603Z,47.00
2018-05-29T13:30:58.848Z,47.00
2018-05-29T13:33:25.056Z,48.00
2018-05-29T13:35:51.291Z,48.30
2018-05-29T13:38:17.547Z,47.30
2018-05-29T13:40:43.783Z,48.90
2018-05-29T13:43:10.020Z,49.20
2018-05-29T13:45:36.989Z,47.80
2018-05-29T13:48:03.216Z,47.70
2018-05-29T13:50:30.058Z,49.60
2018-05-29T13:52:56.818Z,48.50
2018-05-29T13:55:23.100Z,47.40
2018-05-29T13:57:50.148Z,48.60
2018-05-29T14:00:17.090Z,48.30
2018-05-29T14:02:44.065Z,48.60
2018-05-29T14:05:10.342Z,48.60
2018-05-29T14:07:36.958Z,49.10
2018-05-29T14:10:03.238Z,48.40
2018-05-29T14:12:30.185Z,49.50
2018-05-29T14:14:57.298Z,49.80
2018-05-29T14:17:23.577Z,49.60
2018-05-29T14:19:49.833Z,49.80
2018-05-29T14:22:16.252Z,50.30
2018-05-29T14:24:43.299Z,55.20
2018-05-29T14:27:09.597Z,55.10
2018-05-29T14:29:36.560Z,61.80
2018-05-29T14:32:02.781Z,61.80
2018-05-29T14:34:29.753Z,64.80
2018-05-29T14:36:56.177Z,64.80
2018-05-29T14:39:22.416Z,67.60
2018-05-29T14:41:48.675Z,67.90
2018-05-29T14:44:16.341Z,68.90
2018-05-29T14:46:42.565Z,69.60
2018-05-29T14:49:08.804Z,69.90
2018-05-29T14:51:35.044Z,70.40
2018-05-29T14:54:01.244Z,71.60
2018-05-29T14:56:27.448Z,71.60
2018-05-29T14:58:53.677Z,71.50
2018-05-29T15:01:19.876Z,72.50
2018-05-29T15:03:46.113Z,72.20
2018-05-29T15:06:12.513Z,69.70
2018-05-29T15:08:38.820Z,71.60
2018-05-29T15:11:05.061Z,72.20
2018-05-29T15:13:31.652Z,73.00
2018-05-29T15:15:57.876Z,67.50
2018-05-29T15:18:24.107Z,68.00
2018-05-29T15:20:50.309Z,69.60
2018-05-29T15:23:16.546Z,74.00
2018-05-29T15:25:42.800Z,81.00
2018-05-29T15:28:09.042Z,83.70
2018-05-29T15:30:35.874Z,86.50
2018-05-29T15:33:02.115Z,90.90
2018-05-29T15:35:28.344Z,93.90
2018-05-29T15:37:54.566Z,94.30
2018-05-29T15:40:20.799Z,94.80
2018-05-29T15:42:47.021Z,94.60
2018-05-29T15:45:13.251Z,97.30
2018-05-29T15:47:39.486Z,99.70
2018-05-29T15:50:05.707Z,97.50
2018-05-29T15:52:31.949Z,99.90
2018-05-29T15:54:58.193Z,99.90
2018-05-29T15:57:24.491Z,99.90
2018-05-29T15:59:50.739Z,99.90
2018-05-29T16:02:16.938Z,99.90
2018-05-29T16:04:43.160Z,99.90
2018-05-29T16:07:09.370Z,99.90
2018-05-29T16:09:35.727Z,99.90
2018-05-29T16:12:02.002Z,99.90
2018-05-29T16:14:29.996Z,99.90
2018-05-29T16:16:56.233Z,99.90
2018-05-29T16:19:22.461Z,99.90
2018-05-29T16:21:48.683Z,99.90
2018-05-29T16:24:14.916Z,99.90
2018-05-29T16:26:42.005Z,99.90
2018-05-29T16:29:08.257Z,99.90
2018-05-29T16:31:34.524Z,99.90
2018-05-29T16:34:00.764Z,99.90
2018-05-29T16:36:26.982Z,99.90
2018-05-29T16:38:53.243Z,99.90
2018-05-29T16:41:19.449Z,99.90
2018-05-29T16:43:45.720Z,99.90
2018-05-29T16:46:11.965Z,99.90
2018-05-29T16:48:38.191Z,99.90
2018-05-29T16:51:04.442Z,99.90
2018-05-29T16:53:30.705Z,99.90
2018-05-29T16:55:56.962Z,99.90
2018-05-29T16:58:23.312Z,99.90
2018-05-29T17:00:50.797Z,99.90
2018-05-29T17:03:17.101Z,99.90
2018-05-29T17:05:43.312Z,99.80
2018-05-29T17:08:09.565Z,99.70
2018-05-29T17:10:36.105Z,99.20
2018-05-29T17:13:02.365Z,98.70
2018-05-29T17:15:28.651Z,98.40
2018-05-29T17:17:55.607Z,98.40
2018-05-29T17:20:21.855Z,98.40
2018-05-29T17:22:48.056Z,98.20
2018-05-29T17:25:14.288Z,97.70
2018-05-29T17:27:40.527Z,98.20
2018-05-29T17:30:06.804Z,98.80
2018-05-29T17:32:33.796Z,99.60
2018-05-29T17:35:00.115Z,99.50
2018-05-29T17:37:26.396Z,99.40
2018-05-29T17:39:53.788Z,99.30
2018-05-29T17:42:20.036Z,99.30
2018-05-29T17:44:46.248Z,99.40
2018-05-29T17:47:13.022Z,99.90
2018-05-29T17:49:40.278Z,99.90
2018-05-29T17:52:07.502Z,99.90
2018-05-29T17:54:34.067Z,99.90
2018-05-29T17:57:00.718Z,99.90
2018-05-29T17:59:26.980Z,99.90
2018-05-29T18:01:53.220Z,99.90
2018-05-29T18:04:19.694Z,99.90
2018-05-29T18:06:45.969Z,99.90
2018-05-29T18:09:12.948Z,99.90
2018-05-29T18:11:39.183Z,99.90
2018-05-29T18:14:05.497Z,99.90
2018-05-29T18:16:32.605Z,99.90
2018-05-29T18:18:58.852Z,99.90
2018-05-29T18:21:25.131Z,99.90
2018-05-29T18:23:51.552Z,99.90
2018-05-29T18:26:17.800Z,99.90
2018-05-29T18:28:44.277Z,99.90
2018-05-29T18:31:10.624Z,99.90
2018-05-29T18:33:37.035Z,99.50
2018-05-29T18:36:03.388Z,99.90
2018-05-29T18:38:29.657Z,99.90
2018-05-29T18:40:55.891Z,99.90
2018-05-29T18:43:22.183Z,99.30
2018-05-29T18:45:48.430Z,99.50
2018-05-29T18:48:14.673Z,98.90
2018-05-29T18:50:41.713Z,98.90
2018-05-29T18:53:08.826Z,98.60
2018-05-29T18:55:35.110Z,98.60
2018-05-29T18:58:01.374Z,98.70
2018-05-29T19:00:28.933Z,98.00
2018-05-29T19:02:55.195Z,97.90
2018-05-29T19:05:21.422Z,97.80
2018-05-29T19:07:47.689Z,97.90
2018-05-29T19:10:14.738Z,98.10
2018-05-29T19:12:41.070Z,98.10
2018-05-29T19:15:07.324Z,98.30
2018-05-29T19:17:33.568Z,99.40
2018-05-29T19:19:59.770Z,98.90
2018-05-29T19:22:25.976Z,98.50
2018-05-29T19:24:52.227Z,98.60
2018-05-29T19:27:18.441Z,98.40
2018-05-29T19:29:44.716Z,98.30
2018-05-29T19:32:11.073Z,98.20
2018-05-29T19:34:37.325Z,98.10
2018-05-29T19:37:04.289Z,97.50
2018-05-29T19:39:30.589Z,97.50
2018-05-29T19:41:57.601Z,96.90
2018-05-29T19:44:23.865Z,96.90
2018-05-29T19:46:50.884Z,96.20
2018-05-29T19:49:17.212Z,96.20
2018-05-29T19:51:43.444Z,96.30
2018-05-29T19:54:09.720Z,95.40
2018-05-29T19:56:35.982Z,95.00
2018-05-29T19:59:02.288Z,95.20
2018-05-29T20:01:28.533Z,95.40
2018-05-29T20:03:54.843Z,95.20
2018-05-29T20:06:21.101Z,95.40
2018-05-29T20:08:47.330Z,95.80
2018-05-29T20:11:13.565Z,96.10
2018-05-29T20:13:39.801Z,95.80
2018-05-29T20:16:06.062Z,95.50
2018-05-29T20:18:32.300Z,95.50
2018-05-29T20:20:58.813Z,95.60
2018-05-29T20:23:25.764Z,95.50
2018-05-29T20:25:52.802Z,95.00
2018-05-29T20:28:19.759Z,95.50
2018-05-29T20:30:46.753Z,95.30
2018-05-29T20:33:12.964Z,95.30
2018-05-29T20:35:39.195Z,95.40
2018-05-29T20:38:05.456Z,94.90
2018-05-29T20:40:31.712Z,95.30
2018-05-29T20:42:58.175Z,95.10
2018-05-29T20:45:24.518Z,95.00
2018-05-29T20:47:50.872Z,95.50
2018-05-29T20:50:17.089Z,95.00
2018-05-29T20:52:43.325Z,95.20
2018-05-29T20:55:10.329Z,95.20
2018-05-29T20:57:36.559Z,95.20
2018-05-29T21:00:02.812Z,95.20
2018-05-29T21:02:29.086Z,95.40
2018-05-29T21:04:55.317Z,94.70
2018-05-29T21:07:23.425Z,95.70
2018-05-29T21:09:49.659Z,95.60
2018-05-29T21:12:15.896Z,96.30
2018-05-29T21:14:42.315Z,95.40
2018-05-29T21:17:08.524Z,95.20
2018-05-29T21:19:34.806Z,95.20
2018-05-29T21:22:01.846Z,95.00
2018-05-29T21:24:29.572Z,96.50
2018-05-29T21:26:55.823Z,96.50
2018-05-29T21:29:22.073Z,96.30
2018-05-29T21:31:48.305Z,96.60
2018-05-29T21:34:14.533Z,95.40
2018-05-29T21:36:40.750Z,95.60
2018-05-29T21:39:07.074Z,95.50
2018-05-29T21:41:33.329Z,95.10
2018-05-29T21:44:00.337Z,95.10
2018-05-29T21:46:26.544Z,95.10
2018-05-29T21:48:52.784Z,95.10
2018-05-29T21:51:18.985Z,96.10
2018-05-29T21:53:45.233Z,97.20
2018-05-29T21:56:11.512Z,97.80
2018-05-29T21:58:37.741Z,98.40
2018-05-29T22:01:04.764Z,98.00
2018-05-29T22:03:31.040Z,98.00
2018-05-29T22:05:57.291Z,97.10
2018-05-29T22:08:23.513Z,96.50
2018-05-29T22:10:49.732Z,96.30
2018-05-29T22:13:15.951Z,96.00
2018-05-29T22:15:42.227Z,96.60
2018-05-29T22:18:08.477Z,96.60
2018-05-29T22:20:34.700Z,96.60
2018-05-29T22:23:00.932Z,96.60
2018-05-29T22:25:27.137Z,96.70
2018-05-29T22:27:53.401Z,96.60
2018-05-29T22:30:20.386Z,96.40
2018-05-29T22:32:46.703Z,96.40
2018-05-29T22:35:12.944Z,96.30
2018-05-29T22:37:39.187Z,96.40
2018-05-29T22:40:05.404Z,96.90
2018-05-29T22:42:31.636Z,97.50
2018-05-29T22:44:57.868Z,98.10
2018-05-29T22:47:24.108Z,98.40
2018-05-29T22:49:50.391Z,98.80
2018-05-29T22:52:17.371Z,97.50
2018-05-29T22:54:43.823Z,97.50
2018-05-29T22:57:10.039Z,98.10
2018-05-29T22:59:36.284Z,98.00
2018-05-29T23:02:02.565Z,97.60
2018-05-29T23:04:28.913Z,97.60
2018-05-29T23:06:55.134Z,97.20
2018-05-29T23:09:21.381Z,98.20
2018-05-29T23:11:47.605Z,98.60
2018-05-29T23:14:13.852Z,98.80
2018-05-29T23:16:40.108Z,97.70
2018-05-29T23:19:07.089Z,97.40
2018-05-29T23:21:33.313Z,97.30
2018-05-29T23:23:59.544Z,97.20
2018-05-29T23:26:25.934Z,96.80
2018-05-29T23:28:52.401Z,96.80
2018-05-29T23:31:18.665Z,97.10
2018-05-29T23:33:44.914Z,97.30
2018-05-29T23:36:11.125Z,97.80
2018-05-29T23:38:37.353Z,97.20
2018-05-29T23:41:03.579Z,98.30
2018-05-29T23:43:29.825Z,97.50
2018-05-29T23:45:56.884Z,99.50
2018-05-29T23:48:23.892Z,99.70
2018-05-29T23:50:51.676Z,99.90
2018-05-29T23:53:17.915Z,99.90
2018-05-29T23:55:44.888Z,99.90
2018-05-29T23:58:11.096Z,99.90
